Airfield :
LOGIN :

Register | Disclaimer

   EN    FR    IT 

 










Legend :    VFR   Marginal VFR   IFR   Intensive IFR   Very Intensive IFR
Visi :
Ceiling :
>= 8 km
>= 3000ft
5 to 8 km
1000 to 3000 ft
1500m to 5 km
500 to 1000 ft
800 to 1500m
200 to 500 ft
< 800m
< 200 ft
Symbols :   Thunderstorms  Fog  Heavy snow  Heavy precipitations  Wind > 20 kt
SIGMETs :     Misc.  Thunderstorms  Icing  Turbulence  Mountain Waves  Volcanic Ashes






- Airport Elevation : 19 ft
- IATA code : VTS


EVVA - Ventspils Int.

CURRENT METAR :
  • 021150Z AUTO 23024G34KT CAVOK 07/04 Q0995

EXPIRED METARs :
  • 021120Z AUTO 23022G33KT CAVOK 07/04 Q0995
  • 021050Z AUTO 23021G31KT CAVOK 07/04 Q0996
  • 021020Z AUTO 23022G32KT CAVOK 07/04 Q0996
  • 020950Z AUTO 23020G30KT CAVOK 07/04 Q0996
  • 020920Z AUTO 23022KT 9999 SCT037 07/04 Q0996

TAF N/A



MET'MAP, your aeronautical weather chart ! - Copyright ORBIFLY December 2007 - Disclaimer

ORBIFLY MET'MAP TEAM :

Programming & Development : Alexandra Zaïnal
Concept & original design : Baudouin d'Aumeries
Assistance for programming : Marc-Olivier Méhu
Technical & hardware support : Manuel Goepfert

Contact : metmap@orbifly.com




SOURCES & CREDITS :

   NOAA